Nimrod, MN (56478)

1:59 AM CDT on August 24, 2016 (GMT -0500)
KMNVERND2 | | Change Station

Elev 1330 ft 46.59 °N, 94.73 °W | Updated 53 seconds ago

Overcast
Overcast
65.1 °F
Feels Like 65.1 °F
N
1.2
Wind Variable Wind from East
Gusts 1.2 mph

Today
High -- | Low -- °F
--% Chance of Precip.
Yesterday
High -- | Low -- °F
Precip. -- in
Pressure 29.81 in
Visibility 10.0 miles
Clouds Scattered Clouds 900 ft
Overcast 1700 ft
Dew Point 58 °F
Humidity 77%
Rainfall 0.00 in
Snow Depth Not available.
6:29 AM 8:12 PM
Waning Gibbous, 60% visible
METAR KSAZ 240653Z AUTO 20003KT 10SM SCT009 OVC017 19/18 A2981 RMK AO2
Pressure 29.81 in
Visibility 10.0 miles
Clouds Scattered Clouds 900 ft
Overcast 1700 ft
Dew Point 58 °F
Humidity 77%
Rainfall 0.00 in
Snow Depth Not available.
6:29 AM 8:12 PM
Waning Gibbous, 60% visible
METAR KSAZ 240653Z AUTO 20003KT 10SM SCT009 OVC017 19/18 A2981 RMK AO2

10-Day Weather Forecast

Almanac

Astronomy

Aug. 24, 2016 Rise Set
Actual Time
Civil Twilight
Nautical Twilight
Astronomical Twilight
Moon
Length of Visible Light
Length of Day
Tomorrow will be .
, % of the Moon is Illuminated

Today's Extremes

State Highs State Lows

Community

WunderPhotos

Upload Photos

1,934,555 photos uploaded!

WunderBlog® & News

Nearby

Air Quality

  Air Quality AQ Index Pollutant
Not available.

Snow Depth

Station Depth Elevation

Earthquake Activity

City Distance Mag. Time & Date
Minimum magnitude displayed is 2.5.

Coastal Water Temperatures

Place Temperature

Stations

Nearby Weather Stations

Station Location Temp. Windchill Dew Point Humidity Wind Precip. Elev Updated Type
                   

Watches & Warnings

There are currently no watches in effect.